Temp: 3.8°C   Baro: 1036.3mb
  Wind: 0.9mph   Dir: W (273°)
  Rain: 0.0mm (0.0mm/hr)
  Solar: 0W/m2  Hum: 84%

Historic data

Bath Spa Weather Station Historical Data
Daily Summary for December 30, 2019 Units:  Both    English   Metric
Daily Weekly Monthly Yearly Custom
  High: Low: Average:
Temperature: 50.9 °F /  10.5 °C 37.8 °F /  3.2 °C 43.9 °F /  6.6 °C
Dew Point: 46.9 °F /  8.3 °C 36.1 °F /  2.3 °C 41.9 °F /  5.5 °C
Humidity: 96% 85.6% 93%
Wind Speed: 5mph /  8km/h - 1.4mph /  2.3km/h
Wind Gust: 7mph /  11.3km/h - -
Wind- - SSW
Pressure: 30.43 in /  1030.4 hPa 30.35 in /  1027.7 hPa -
Precipitation: 0.00 in /  0 mm    
Historical Graphs
 
 
Tabular Data for December 30, 2019
Time Temperature Dew Point Pressure Wind Wind Speed Wind Gust Humidity Rainfall Rate (Hourly) solar
00:09 45 °F /  7.2 °C 42.8 °F /  6 °C 30.43in /  1030.4hPa SSE 1mph /  1.6km/h 3mph /  4.8km/h 92% 0.00in /  0mm 0 W/m2
00:14 44.8 °F /  7.1 °C 42.6 °F /  5.9 °C 30.43in /  1030.4hPa SSE 1.3mph /  2.1km/h 3mph /  4.8km/h 92% 0.00in /  0mm 0 W/m2
00:19 44.8 °F /  7.1 °C 42.6 °F /  5.9 °C 30.43in /  1030.4hPa SSE 1.7mph /  2.7km/h 3mph /  4.8km/h 92% 0.00in /  0mm 0 W/m2
00:24 44.9 °F /  7.2 °C 42.7 °F /  5.9 °C 30.43in /  1030.4hPa South 2.3mph /  3.7km/h 4mph /  6.4km/h 92% 0.00in /  0mm 0 W/m2
00:29 45 °F /  7.2 °C 42.8 °F /  6 °C 30.42in /  1030hPa SSE 1.7mph /  2.7km/h 5mph /  8km/h 92% 0.00in /  0mm 0 W/m2
00:34 44.8 °F /  7.1 °C 42.6 °F /  5.9 °C 30.42in /  1030hPa SSE 1.7mph /  2.7km/h 5mph /  8km/h 92% 0.00in /  0mm 0 W/m2
00:39 44.8 °F /  7.1 °C 42.6 °F /  5.9 °C 30.42in /  1030hPa SSE 2.2mph /  3.5km/h 3mph /  4.8km/h 92% 0.00in /  0mm 0 W/m2
00:44 44.6 °F /  7 °C 42.4 °F /  5.8 °C 30.42in /  1030hPa SSE 1.2mph /  1.9km/h 3mph /  4.8km/h 92% 0.00in /  0mm 0 W/m2
00:49 44.4 °F /  6.9 °C 42.3 °F /  5.7 °C 30.41in /  1029.7hPa ESE 2.2mph /  3.5km/h 5mph /  8km/h 92% 0.00in /  0mm 0 W/m2
00:54 44.2 °F /  6.8 °C 41.9 °F /  5.5 °C 30.41in /  1029.7hPa SE 1.3mph /  2.1km/h 6mph /  9.7km/h 91.6% 0.00in /  0mm 0 W/m2
00:59 44.2 °F /  6.8 °C 41.7 °F /  5.4 °C 30.41in /  1029.7hPa SSE 1.2mph /  1.9km/h 6mph /  9.7km/h 91.3% 0.00in /  0mm 0 W/m2
01:04 44.1 °F /  6.7 °C 41.8 °F /  5.4 °C 30.41in /  1029.7hPa SE 1.3mph /  2.1km/h 3mph /  4.8km/h 91.6% 0.00in /  0mm 0 W/m2
01:09 44 °F /  6.7 °C 41.8 °F /  5.4 °C 30.41in /  1029.7hPa ESE 2mph /  3.2km/h 5mph /  8km/h 92% 0.00in /  0mm 0 W/m2
01:14 43.9 °F /  6.6 °C 41.7 °F /  5.4 °C 30.41in /  1029.7hPa ESE 2mph /  3.2km/h 3mph /  4.8km/h 92% 0.00in /  0mm 0 W/m2
01:19 43.9 °F /  6.6 °C 41.7 °F /  5.4 °C 30.41in /  1029.7hPa SSE 2.2mph /  3.5km/h 5mph /  8km/h 92% 0.00in /  0mm 0 W/m2
01:24 43.6 °F /  6.4 °C 41.4 °F /  5.2 °C 30.41in /  1029.7hPa East 1.6mph /  2.6km/h 3mph /  4.8km/h 92% 0.00in /  0mm 0 W/m2
01:29 43.2 °F /  6.2 °C 41.1 °F /  5.1 °C 30.41in /  1029.7hPa East 1.5mph /  2.4km/h 2mph /  3.2km/h 92% 0.00in /  0mm 0 W/m2
01:34 43.2 °F /  6.2 °C 41 °F /  5 °C 30.41in /  1029.7hPa ESE 2.1mph /  3.4km/h 4mph /  6.4km/h 92% 0.00in /  0mm 0 W/m2
01:39 43.2 °F /  6.2 °C 41 °F /  5 °C 30.41in /  1029.7hPa East 0.9mph /  1.4km/h 3mph /  4.8km/h 92% 0.00in /  0mm 0 W/m2
01:44 43.1 °F /  6.2 °C 40.9 °F /  4.9 °C 30.41in /  1029.7hPa East 0.8mph /  1.3km/h 2mph /  3.2km/h 92% 0.00in /  0mm 0 W/m2
01:49 43 °F /  6.1 °C 40.8 °F /  4.9 °C 30.41in /  1029.7hPa East 0.8mph /  1.3km/h 2mph /  3.2km/h 92% 0.00in /  0mm 0 W/m2
01:54 42.9 °F /  6.1 °C 40.7 °F /  4.8 °C 30.40in /  1029.3hPa East 0.5mph /  0.8km/h 2mph /  3.2km/h 92% 0.00in /  0mm 0 W/m2
01:59 42.7 °F /  5.9 °C 40.6 °F /  4.8 °C 30.41in /  1029.7hPa East 0.9mph /  1.4km/h 2mph /  3.2km/h 92% 0.00in /  0mm 0 W/m2
02:04 42.6 °F /  5.9 °C 40.5 °F /  4.7 °C 30.41in /  1029.7hPa ENE 2.2mph /  3.5km/h 3mph /  4.8km/h 92% 0.00in /  0mm 0 W/m2
02:09 42.4 °F /  5.8 °C 40.3 °F /  4.6 °C 30.41in /  1029.7hPa ENE 0.5mph /  0.8km/h 3mph /  4.8km/h 92% 0.00in /  0mm 0 W/m2
02:14 42.3 °F /  5.7 °C 40.2 °F /  4.6 °C 30.41in /  1029.7hPa ENE 1.2mph /  1.9km/h 2mph /  3.2km/h 92% 0.00in /  0mm 0 W/m2
02:19 42.3 °F /  5.7 °C 40.1 °F /  4.5 °C 30.40in /  1029.3hPa East 2.2mph /  3.5km/h 4mph /  6.4km/h 92% 0.00in /  0mm 0 W/m2
02:24 42.2 °F /  5.7 °C 40 °F /  4.4 °C 30.40in /  1029.3hPa East 1.1mph /  1.8km/h 3mph /  4.8km/h 92% 0.00in /  0mm 0 W/m2
02:29 41.9 °F /  5.5 °C 39.8 °F /  4.3 °C 30.41in /  1029.7hPa ENE 2.2mph /  3.5km/h 3mph /  4.8km/h 92.2% 0.00in /  0mm 0 W/m2
02:34 42 °F /  5.6 °C 40.2 °F /  4.6 °C 30.40in /  1029.3hPa East 1.6mph /  2.6km/h 3mph /  4.8km/h 93% 0.00in /  0mm 0 W/m2
02:39 42.3 °F /  5.7 °C 40.5 °F /  4.7 °C 30.40in /  1029.3hPa ESE 1mph /  1.6km/h 3mph /  4.8km/h 93% 0.00in /  0mm 0 W/m2
02:44 42.3 °F /  5.7 °C 40.5 °F /  4.7 °C 30.40in /  1029.3hPa East 1.5mph /  2.4km/h 3mph /  4.8km/h 93% 0.00in /  0mm 0 W/m2
02:49 42 °F /  5.6 °C 40.2 °F /  4.6 °C 30.40in /  1029.3hPa ENE 1.6mph /  2.6km/h 3mph /  4.8km/h 93% 0.00in /  0mm 0 W/m2
02:54 41.7 °F /  5.4 °C 39.8 °F /  4.3 °C 30.41in /  1029.7hPa ENE 1.5mph /  2.4km/h 3mph /  4.8km/h 93% 0.00in /  0mm 0 W/m2
02:59 41.3 °F /  5.2 °C 39.5 °F /  4.2 °C 30.40in /  1029.3hPa ENE 0.4mph /  0.6km/h 1mph /  1.6km/h 93% 0.00in /  0mm 0 W/m2
03:04 40.7 °F /  4.8 °C 38.9 °F /  3.8 °C 30.40in /  1029.3hPa ENE 0.8mph /  1.3km/h 2mph /  3.2km/h 93% 0.00in /  0mm 0 W/m2
03:09 40.3 °F /  4.6 °C 38.5 °F /  3.6 °C 30.40in /  1029.3hPa ENE 0.5mph /  0.8km/h 2mph /  3.2km/h 93% 0.00in /  0mm 0 W/m2
03:14 40.2 °F /  4.6 °C 38.4 °F /  3.6 °C 30.40in /  1029.3hPa ENE 0.2mph /  0.3km/h 2mph /  3.2km/h 93% 0.00in /  0mm 0 W/m2
03:19 39.9 °F /  4.4 °C 38.1 °F /  3.4 °C 30.40in /  1029.3hPa ENE 0.5mph /  0.8km/h 2mph /  3.2km/h 93% 0.00in /  0mm 0 W/m2
03:24 39.7 °F /  4.3 °C 37.9 °F /  3.3 °C 30.40in /  1029.3hPa ENE 0.2mph /  0.3km/h 1mph /  1.6km/h 93% 0.00in /  0mm 0 W/m2
03:29 39.6 °F /  4.2 °C 37.8 °F /  3.2 °C 30.40in /  1029.3hPa ENE 0.8mph /  1.3km/h 2mph /  3.2km/h 93% 0.00in /  0mm 0 W/m2
03:34 39.4 °F /  4.1 °C 37.6 °F /  3.1 °C 30.40in /  1029.3hPa Calm   1mph /  1.6km/h 93% 0.00in /  0mm 0 W/m2
03:39 39 °F /  3.9 °C 37.2 °F /  2.9 °C 30.40in /  1029.3hPa ENE 0.7mph /  1.1km/h 2mph /  3.2km/h 93% 0.00in /  0mm 0 W/m2
03:44 39 °F /  3.9 °C 37.2 °F /  2.9 °C 30.40in /  1029.3hPa ENE 0.2mph /  0.3km/h 1mph /  1.6km/h 93% 0.00in /  0mm 0 W/m2
03:49 39 °F /  3.9 °C 37.2 °F /  2.9 °C 30.40in /  1029.3hPa ENE 0.2mph /  0.3km/h 1mph /  1.6km/h 93% 0.00in /  0mm 0 W/m2
03:54 39 °F /  3.9 °C 37.2 °F /  2.9 °C 30.40in /  1029.3hPa ENE 0.2mph /  0.3km/h 1mph /  1.6km/h 93% 0.00in /  0mm 0 W/m2
03:59 38.9 °F /  3.8 °C 37.1 °F /  2.8 °C 30.40in /  1029.3hPa Calm   1mph /  1.6km/h 93% 0.00in /  0mm 0 W/m2
04:04 38.8 °F /  3.8 °C 37 °F /  2.8 °C 30.40in /  1029.3hPa ENE 0.2mph /  0.3km/h 2mph /  3.2km/h 93% 0.00in /  0mm 0 W/m2
04:09 38.5 °F /  3.6 °C 36.7 °F /  2.6 °C 30.40in /  1029.3hPa ENE 0.2mph /  0.3km/h 2mph /  3.2km/h 93% 0.00in /  0mm 0 W/m2
04:14 38.5 °F /  3.6 °C 36.7 °F /  2.6 °C 30.40in /  1029.3hPa Calm     93% 0.00in /  0mm 0 W/m2
04:19 38.3 °F /  3.5 °C 36.7 °F /  2.6 °C 30.40in /  1029.3hPa ENE 0.8mph /  1.3km/h 2mph /  3.2km/h 94% 0.00in /  0mm 0 W/m2
04:24 38.2 °F /  3.4 °C 36.5 °F /  2.5 °C 30.40in /  1029.3hPa ENE 0.7mph /  1.1km/h 1mph /  1.6km/h 93.8% 0.00in /  0mm 0 W/m2
04:29 38 °F /  3.3 °C 36.2 °F /  2.3 °C 30.40in /  1029.3hPa Calm   1mph /  1.6km/h 93% 0.00in /  0mm 0 W/m2
04:34 37.9 °F /  3.3 °C 36.1 °F /  2.3 °C 30.40in /  1029.3hPa ENE 0.5mph /  0.8km/h 1mph /  1.6km/h 93.2% 0.00in /  0mm 0 W/m2
04:39 37.9 °F /  3.3 °C 36.3 °F /  2.4 °C 30.40in /  1029.3hPa Calm   1mph /  1.6km/h 94% 0.00in /  0mm 0 W/m2
04:44 37.9 °F /  3.3 °C 36.3 °F /  2.4 °C 30.40in /  1029.3hPa ENE 0.2mph /  0.3km/h 1mph /  1.6km/h 94% 0.00in /  0mm 0 W/m2
04:49 37.9 °F /  3.3 °C 36.3 °F /  2.4 °C 30.40in /  1029.3hPa Calm   1mph /  1.6km/h 94% 0.00in /  0mm 0 W/m2
04:53 37.8 °F /  3.2 °C 36.1 °F /  2.3 °C 30.40in /  1029.3hPa ENE 1.2mph /  1.9km/h 2mph /  3.2km/h 94% 0.00in /  0mm 0 W/m2
04:59 37.8 °F /  3.2 °C 36.1 °F /  2.3 °C 30.40in /  1029.3hPa Calm   2mph /  3.2km/h 94% 0.00in /  0mm 0 W/m2
05:04 37.8 °F /  3.2 °C 36.1 °F /  2.3 °C 30.40in /  1029.3hPa Calm   1mph /  1.6km/h 94% 0.00in /  0mm 0 W/m2
05:09 37.9 °F /  3.3 °C 36.2 °F /  2.3 °C 30.40in /  1029.3hPa ENE 0.2mph /  0.3km/h 2mph /  3.2km/h 94% 0.00in /  0mm 0 W/m2
05:14 38 °F /  3.3 °C 36.4 °F /  2.4 °C 30.40in /  1029.3hPa Calm   2mph /  3.2km/h 94% 0.00in /  0mm 0 W/m2
05:19 37.9 °F /  3.3 °C 36.3 °F /  2.4 °C 30.40in /  1029.3hPa Calm   1mph /  1.6km/h 94% 0.00in /  0mm 0 W/m2
05:24 37.9 °F /  3.3 °C 36.3 °F /  2.4 °C 30.40in /  1029.3hPa ENE 0.2mph /  0.3km/h 1mph /  1.6km/h 94% 0.00in /  0mm 0 W/m2
05:29 38.1 °F /  3.4 °C 36.5 °F /  2.5 °C 30.40in /  1029.3hPa ENE 1.3mph /  2.1km/h 2mph /  3.2km/h 94% 0.00in /  0mm 0 W/m2
05:34 38.6 °F /  3.7 °C 37 °F /  2.8 °C 30.39in /  1029hPa ENE 0.9mph /  1.4km/h 2mph /  3.2km/h 94% 0.00in /  0mm 0 W/m2
05:39 38.9 °F /  3.8 °C 37.3 °F /  2.9 °C 30.39in /  1029hPa East 1.2mph /  1.9km/h 3mph /  4.8km/h 94% 0.00in /  0mm 0 W/m2
05:44 38.9 °F /  3.8 °C 37.3 °F /  2.9 °C 30.39in /  1029hPa East 0.4mph /  0.6km/h 2mph /  3.2km/h 94% 0.00in /  0mm 0 W/m2
05:49 38.6 °F /  3.7 °C 37 °F /  2.8 °C 30.39in /  1029hPa Calm   1mph /  1.6km/h 94% 0.00in /  0mm 0 W/m2
05:54 38.3 °F /  3.5 °C 36.7 °F /  2.6 °C 30.39in /  1029hPa East 0.4mph /  0.6km/h 1mph /  1.6km/h 94% 0.00in /  0mm 0 W/m2
05:59 38.1 °F /  3.4 °C 36.5 °F /  2.5 °C 30.39in /  1029hPa East 0.8mph /  1.3km/h 2mph /  3.2km/h 94% 0.00in /  0mm 0 W/m2
06:04 38.3 °F /  3.5 °C 36.7 °F /  2.6 °C 30.39in /  1029hPa East 1.1mph /  1.8km/h 3mph /  4.8km/h 94% 0.00in /  0mm 0 W/m2
06:09 39 °F /  3.9 °C 37.4 °F /  3 °C 30.39in /  1029hPa ENE 2mph /  3.2km/h 3mph /  4.8km/h 94% 0.00in /  0mm 0 W/m2
06:14 40 °F /  4.4 °C 38.5 °F /  3.6 °C 30.39in /  1029hPa ENE 1.7mph /  2.7km/h 3mph /  4.8km/h 94.3% 0.00in /  0mm 0 W/m2
06:19 40.7 °F /  4.8 °C 39.2 °F /  4 °C 30.39in /  1029hPa ENE 1.6mph /  2.6km/h 3mph /  4.8km/h 94.4% 0.00in /  0mm 0 W/m2
06:24 41.2 °F /  5.1 °C 39.9 °F /  4.4 °C 30.39in /  1029hPa ENE 1.6mph /  2.6km/h 2mph /  3.2km/h 95% 0.00in /  0mm 0 W/m2
06:29 40.9 °F /  4.9 °C 39.5 °F /  4.2 °C 30.39in /  1029hPa East 0.4mph /  0.6km/h 2mph /  3.2km/h 94.8% 0.00in /  0mm 0 W/m2
06:34 40.2 °F /  4.6 °C 38.9 °F /  3.8 °C 30.39in /  1029hPa ESE 0.5mph /  0.8km/h 2mph /  3.2km/h 95% 0.00in /  0mm 0 W/m2
06:39 39.9 °F /  4.4 °C 38.5 °F /  3.6 °C 30.39in /  1029hPa ESE 0.7mph /  1.1km/h 2mph /  3.2km/h 94.6% 0.00in /  0mm 0 W/m2
06:44 39.4 °F /  4.1 °C 37.9 °F /  3.3 °C 30.39in /  1029hPa Calm   1mph /  1.6km/h 94.4% 0.00in /  0mm 0 W/m2
06:49 38.8 °F /  3.8 °C 37.6 °F /  3.1 °C 30.39in /  1029hPa ESE 0.9mph /  1.4km/h 2mph /  3.2km/h 95% 0.00in /  0mm 0 W/m2
06:54 38.8 °F /  3.8 °C 37.5 °F /  3.1 °C 30.39in /  1029hPa ESE 0.7mph /  1.1km/h 2mph /  3.2km/h 94.8% 0.00in /  0mm 0 W/m2
06:59 38.7 °F /  3.7 °C 37.1 °F /  2.8 °C 30.39in /  1029hPa ESE 0.5mph /  0.8km/h 1mph /  1.6km/h 94.2% 0.00in /  0mm 0 W/m2
07:04 38.7 °F /  3.7 °C 37 °F /  2.8 °C 30.39in /  1029hPa ESE 0.4mph /  0.6km/h 1mph /  1.6km/h 94% 0.00in /  0mm 0 W/m2
07:09 38.7 °F /  3.7 °C 37 °F /  2.8 °C 30.39in /  1029hPa Calm   1mph /  1.6km/h 94% 0.00in /  0mm 0 W/m2
07:14 38.7 °F /  3.7 °C 37.2 °F /  2.9 °C 30.39in /  1029hPa Calm     94.4% 0.00in /  0mm 0 W/m2
07:19 38.8 °F /  3.8 °C 37.6 °F /  3.1 °C 30.39in /  1029hPa Calm     95% 0.00in /  0mm 0 W/m2
07:24 39.1 °F /  3.9 °C 37.9 °F /  3.3 °C 30.39in /  1029hPa ESE 0.2mph /  0.3km/h 1mph /  1.6km/h 95% 0.00in /  0mm 0 W/m2
07:29 39.4 °F /  4.1 °C 38.1 °F /  3.4 °C 30.39in /  1029hPa ESE 0.2mph /  0.3km/h 1mph /  1.6km/h 95% 0.00in /  0mm 0 W/m2
07:34 39.3 °F /  4.1 °C 38 °F /  3.3 °C 30.39in /  1029hPa Calm   1mph /  1.6km/h 95% 0.00in /  0mm 0 W/m2
07:39 39 °F /  3.9 °C 37.8 °F /  3.2 °C 30.40in /  1029.3hPa ESE 0.2mph /  0.3km/h 1mph /  1.6km/h 95% 0.00in /  0mm 0 W/m2
07:44 39 °F /  3.9 °C 37.8 °F /  3.2 °C 30.40in /  1029.3hPa ESE 0.2mph /  0.3km/h 1mph /  1.6km/h 95% 0.00in /  0mm 0 W/m2
07:49 38.8 °F /  3.8 °C 37.6 °F /  3.1 °C 30.39in /  1029hPa ESE 0.4mph /  0.6km/h 1mph /  1.6km/h 95% 0.00in /  0mm 0 W/m2
07:54 38.8 °F /  3.8 °C 37.6 °F /  3.1 °C 30.39in /  1029hPa ESE 0.9mph /  1.4km/h 2mph /  3.2km/h 95% 0.00in /  0mm 0 W/m2
07:59 38.9 °F /  3.8 °C 37.7 °F /  3.2 °C 30.39in /  1029hPa SE 0.5mph /  0.8km/h 2mph /  3.2km/h 95% 0.00in /  0mm 0 W/m2
08:04 39.4 °F /  4.1 °C 38.1 °F /  3.4 °C 30.39in /  1029hPa SE 0.4mph /  0.6km/h 2mph /  3.2km/h 95% 0.00in /  0mm 0 W/m2
08:09 39.9 °F /  4.4 °C 38.6 °F /  3.7 °C 30.39in /  1029hPa SE 0.7mph /  1.1km/h 2mph /  3.2km/h 95% 0.00in /  0mm 0 W/m2
08:14 40.9 °F /  4.9 °C 39.6 °F /  4.2 °C 30.39in /  1029hPa SE 0.2mph /  0.3km/h 2mph /  3.2km/h 95% 0.00in /  0mm 0 W/m2
08:19 41.3 °F /  5.2 °C 40.1 °F /  4.5 °C 30.39in /  1029hPa Calm   1mph /  1.6km/h 95% 0.00in /  0mm 0 W/m2
08:24 41.7 °F /  5.4 °C 40.5 °F /  4.7 °C 30.39in /  1029hPa SE 0.9mph /  1.4km/h 2mph /  3.2km/h 95% 0.00in /  0mm 5 W/m2
08:29 41.8 °F /  5.4 °C 40.6 °F /  4.8 °C 30.39in /  1029hPa SE 2mph /  3.2km/h 2mph /  3.2km/h 95% 0.00in /  0mm 9 W/m2
08:34 42.2 °F /  5.7 °C 41 °F /  5 °C 30.39in /  1029hPa SE 1.3mph /  2.1km/h 2mph /  3.2km/h 95% 0.00in /  0mm 12 W/m2
08:39 42.4 °F /  5.8 °C 41.2 °F /  5.1 °C 30.40in /  1029.3hPa SE 0.4mph /  0.6km/h 1mph /  1.6km/h 95% 0.00in /  0mm 12 W/m2
08:44 42.4 °F /  5.8 °C 41.2 °F /  5.1 °C 30.40in /  1029.3hPa Calm   1mph /  1.6km/h 95% 0.00in /  0mm 16 W/m2
08:49 42.3 °F /  5.7 °C 41 °F /  5 °C 30.40in /  1029.3hPa SE 0.8mph /  1.3km/h 2mph /  3.2km/h 95% 0.00in /  0mm 21 W/m2
08:54 42 °F /  5.6 °C 40.7 °F /  4.8 °C 30.40in /  1029.3hPa SE 0.5mph /  0.8km/h 2mph /  3.2km/h 95% 0.00in /  0mm 23 W/m2
08:59 41.6 °F /  5.3 °C 40.4 °F /  4.7 °C 30.40in /  1029.3hPa SE 0.2mph /  0.3km/h 2mph /  3.2km/h 95% 0.00in /  0mm 16 W/m2
09:04 41.5 °F /  5.3 °C 40.3 °F /  4.6 °C 30.40in /  1029.3hPa SE 0.2mph /  0.3km/h 1mph /  1.6km/h 95% 0.00in /  0mm 18 W/m2
09:09 41.4 °F /  5.2 °C 40.1 °F /  4.5 °C 30.40in /  1029.3hPa SE 1.3mph /  2.1km/h 2mph /  3.2km/h 95% 0.00in /  0mm 19 W/m2
09:14 41.4 °F /  5.2 °C 40.1 °F /  4.5 °C 30.40in /  1029.3hPa SE 0.4mph /  0.6km/h 1mph /  1.6km/h 95% 0.00in /  0mm 21 W/m2
09:19 41.5 °F /  5.3 °C 40.3 °F /  4.6 °C 30.40in /  1029.3hPa Calm   1mph /  1.6km/h 95% 0.00in /  0mm 25 W/m2
09:24 41.6 °F /  5.3 °C 40.3 °F /  4.6 °C 30.41in /  1029.7hPa SSE 0.5mph /  0.8km/h 2mph /  3.2km/h 95% 0.00in /  0mm 30 W/m2
09:29 41.6 °F /  5.3 °C 40.4 °F /  4.7 °C 30.41in /  1029.7hPa SSE 0.2mph /  0.3km/h 1mph /  1.6km/h 95% 0.00in /  0mm 40 W/m2
09:34 42 °F /  5.6 °C 40.7 °F /  4.8 °C 30.41in /  1029.7hPa SSE 0.2mph /  0.3km/h 1mph /  1.6km/h 95% 0.00in /  0mm 54 W/m2
09:39 42.3 °F /  5.7 °C 41 °F /  5 °C 30.41in /  1029.7hPa SSE 0.4mph /  0.6km/h 1mph /  1.6km/h 95% 0.00in /  0mm 54 W/m2
09:44 42.5 °F /  5.8 °C 41.3 °F /  5.2 °C 30.41in /  1029.7hPa Calm   1mph /  1.6km/h 95% 0.00in /  0mm 47 W/m2
09:49 42.7 °F /  5.9 °C 41.5 °F /  5.3 °C 30.41in /  1029.7hPa SSE 0.2mph /  0.3km/h 1mph /  1.6km/h 95.4% 0.00in /  0mm 56 W/m2
09:54 43 °F /  6.1 °C 41.7 °F /  5.4 °C 30.41in /  1029.7hPa SSE 0.5mph /  0.8km/h 2mph /  3.2km/h 95% 0.00in /  0mm 56 W/m2
09:59 43 °F /  6.1 °C 41.7 °F /  5.4 °C 30.41in /  1029.7hPa Calm   1mph /  1.6km/h 95% 0.00in /  0mm 67 W/m2
10:04 43 °F /  6.1 °C 41.7 °F /  5.4 °C 30.41in /  1029.7hPa Calm   2mph /  3.2km/h 95% 0.00in /  0mm 63 W/m2
10:09 43.3 °F /  6.3 °C 42.2 °F /  5.7 °C 30.41in /  1029.7hPa Calm     96% 0.00in /  0mm 69 W/m2
10:14 43.6 °F /  6.4 °C 42.4 °F /  5.8 °C 30.41in /  1029.7hPa Calm   1mph /  1.6km/h 95.6% 0.00in /  0mm 83 W/m2
10:19 44.2 °F /  6.8 °C 43.2 °F /  6.2 °C 30.41in /  1029.7hPa Calm     96% 0.00in /  0mm 90 W/m2
10:24 44.2 °F /  6.8 °C 43.2 °F /  6.2 °C 30.41in /  1029.7hPa SW 1.7mph /  2.7km/h 3mph /  4.8km/h 96% 0.00in /  0mm 105 W/m2
10:29 44.5 °F /  6.9 °C 43.4 °F /  6.3 °C 30.41in /  1029.7hPa WNW 2mph /  3.2km/h 3mph /  4.8km/h 96% 0.00in /  0mm 88 W/m2
10:34 44.8 °F /  7.1 °C 43.7 °F /  6.5 °C 30.41in /  1029.7hPa NW 1.8mph /  2.9km/h 5mph /  8km/h 96% 0.00in /  0mm 86 W/m2
10:39 45 °F /  7.2 °C 43.9 °F /  6.6 °C 30.41in /  1029.7hPa West 2.5mph /  4km/h 5mph /  8km/h 96% 0.00in /  0mm 109 W/m2
10:44 45.1 °F /  7.3 °C 44.1 °F /  6.7 °C 30.41in /  1029.7hPa West 2.1mph /  3.4km/h 5mph /  8km/h 96% 0.00in /  0mm 132 W/m2
10:49 45.3 °F /  7.4 °C 44.2 °F /  6.8 °C 30.41in /  1029.7hPa West 2.5mph /  4km/h 5mph /  8km/h 96% 0.00in /  0mm 139 W/m2
10:54 45.3 °F /  7.4 °C 44.2 °F /  6.8 °C 30.41in /  1029.7hPa West 1.7mph /  2.7km/h 4mph /  6.4km/h 95.6% 0.00in /  0mm 123 W/m2
10:59 45.2 °F /  7.3 °C 44 °F /  6.7 °C 30.41in /  1029.7hPa WNW 3.8mph /  6.1km/h 6mph /  9.7km/h 95% 0.00in /  0mm 107 W/m2
11:04 45.3 °F /  7.4 °C 44.1 °F /  6.7 °C 30.41in /  1029.7hPa West 2mph /  3.2km/h 3mph /  4.8km/h 95% 0.00in /  0mm 114 W/m2
11:09 45.5 °F /  7.5 °C 44.2 °F /  6.8 °C 30.40in /  1029.3hPa West 3mph /  4.8km/h 5mph /  8km/h 95% 0.00in /  0mm 156 W/m2
11:14 45.8 °F /  7.7 °C 44.4 °F /  6.9 °C 30.40in /  1029.3hPa West 2mph /  3.2km/h 5mph /  8km/h 95% 0.00in /  0mm 135 W/m2
11:19 46 °F /  7.8 °C 44.5 °F /  6.9 °C 30.40in /  1029.3hPa SW 1.2mph /  1.9km/h 3mph /  4.8km/h 95% 0.00in /  0mm 104 W/m2
11:24 46.2 °F /  7.9 °C 44.8 °F /  7.1 °C 30.40in /  1029.3hPa SSW 1.5mph /  2.4km/h 4mph /  6.4km/h 95% 0.00in /  0mm 167 W/m2
11:29 46.4 °F /  8 °C 44.9 °F /  7.2 °C 30.40in /  1029.3hPa SW 0.8mph /  1.3km/h 4mph /  6.4km/h 94.4% 0.00in /  0mm 128 W/m2
11:34 46.6 °F /  8.1 °C 45 °F /  7.2 °C 30.40in /  1029.3hPa SSW 3.8mph /  6.1km/h 7mph /  11.3km/h 94% 0.00in /  0mm 221 W/m2
11:39 46.8 °F /  8.2 °C 45.1 °F /  7.3 °C 30.40in /  1029.3hPa SW 2.4mph /  3.9km/h 6mph /  9.7km/h 94% 0.00in /  0mm 225 W/m2
11:44 47 °F /  8.3 °C 45 °F /  7.2 °C 30.40in /  1029.3hPa WSW 2.5mph /  4km/h 6mph /  9.7km/h 93% 0.00in /  0mm 236 W/m2
11:49 47.1 °F /  8.4 °C 45.1 °F /  7.3 °C 30.40in /  1029.3hPa WSW 2.9mph /  4.7km/h 6mph /  9.7km/h 93% 0.00in /  0mm 227 W/m2
11:54 47.3 °F /  8.5 °C 45.2 °F /  7.3 °C 30.39in /  1029hPa West 3.8mph /  6.1km/h 7mph /  11.3km/h 92.6% 0.00in /  0mm 211 W/m2
11:59 47.6 °F /  8.7 °C 45.4 °F /  7.4 °C 30.39in /  1029hPa WSW 2.6mph /  4.2km/h 6mph /  9.7km/h 92% 0.00in /  0mm 209 W/m2
12:04 47.7 °F /  8.7 °C 45.5 °F /  7.5 °C 30.39in /  1029hPa West 2.1mph /  3.4km/h 4mph /  6.4km/h 92% 0.00in /  0mm 207 W/m2
12:09 48 °F /  8.9 °C 45.7 °F /  7.6 °C 30.39in /  1029hPa West 1.4mph /  2.3km/h 3mph /  4.8km/h 91.4% 0.00in /  0mm 211 W/m2
12:14 48.6 °F /  9.2 °C 46.1 °F /  7.8 °C 30.38in /  1028.7hPa SW 1.5mph /  2.4km/h 4mph /  6.4km/h 91% 0.00in /  0mm 202 W/m2
12:19 49 °F /  9.4 °C 46.3 °F /  7.9 °C 30.38in /  1028.7hPa SW 1.2mph /  1.9km/h 4mph /  6.4km/h 90.4% 0.00in /  0mm 193 W/m2
12:24 49.1 °F /  9.5 °C 46 °F /  7.8 °C 30.37in /  1028.3hPa SSW 2mph /  3.2km/h 4mph /  6.4km/h 89.2% 0.00in /  0mm 186 W/m2
12:29 49.4 °F /  9.7 °C 46.4 °F /  8 °C 30.37in /  1028.3hPa SW 1.3mph /  2.1km/h 6mph /  9.7km/h 89% 0.00in /  0mm 188 W/m2
12:34 49.5 °F /  9.7 °C 46.2 °F /  7.9 °C 30.37in /  1028.3hPa SSW 3.3mph /  5.3km/h 6mph /  9.7km/h 88.4% 0.00in /  0mm 190 W/m2
12:39 49.5 °F /  9.7 °C 46.1 °F /  7.8 °C 30.37in /  1028.3hPa SSW 2.5mph /  4km/h 6mph /  9.7km/h 88% 0.00in /  0mm 179 W/m2
12:44 49.8 °F /  9.9 °C 46.4 °F /  8 °C 30.37in /  1028.3hPa SSW 2.5mph /  4km/h 5mph /  8km/h 88% 0.00in /  0mm 179 W/m2
12:49 49.9 °F /  9.9 °C 46.2 °F /  7.9 °C 30.37in /  1028.3hPa SW 2.2mph /  3.5km/h 4mph /  6.4km/h 87.2% 0.00in /  0mm 178 W/m2
12:54 50.5 °F /  10.3 °C 46.7 °F /  8.2 °C 30.37in /  1028.3hPa WSW 3mph /  4.8km/h 5mph /  8km/h 87% 0.00in /  0mm 174 W/m2
12:59 50.2 °F /  10.1 °C 46.2 °F /  7.9 °C 30.37in /  1028.3hPa WSW 2.9mph /  4.7km/h 5mph /  8km/h 86.2% 0.00in /  0mm 174 W/m2
13:04 50.2 °F /  10.1 °C 46.4 °F /  8 °C 30.36in /  1028hPa WSW 2.9mph /  4.7km/h 5mph /  8km/h 87% 0.00in /  0mm 167 W/m2
13:09 50.4 °F /  10.2 °C 46.7 °F /  8.2 °C 30.36in /  1028hPa West 3mph /  4.8km/h 5mph /  8km/h 86.8% 0.00in /  0mm 165 W/m2
13:14 50.5 °F /  10.3 °C 46.6 °F /  8.1 °C 30.36in /  1028hPa WSW 2.5mph /  4km/h 6mph /  9.7km/h 86% 0.00in /  0mm 165 W/m2
13:19 50.3 °F /  10.2 °C 46.3 °F /  7.9 °C 30.36in /  1028hPa WSW 5mph /  8km/h 7mph /  11.3km/h 86% 0.00in /  0mm 162 W/m2
13:24 50 °F /  10 °C 46.1 °F /  7.8 °C 30.36in /  1028hPa West 2.9mph /  4.7km/h 7mph /  11.3km/h 86% 0.00in /  0mm 156 W/m2
13:29 49.8 °F /  9.9 °C 45.9 °F /  7.7 °C 30.36in /  1028hPa West 3.4mph /  5.5km/h 6mph /  9.7km/h 86% 0.00in /  0mm 155 W/m2
13:34 49.8 °F /  9.9 °C 45.9 °F /  7.7 °C 30.36in /  1028hPa WSW 3.2mph /  5.1km/h 6mph /  9.7km/h 86% 0.00in /  0mm 151 W/m2
13:39 50 °F /  10 °C 46.2 °F /  7.9 °C 30.36in /  1028hPa West 2.9mph /  4.7km/h 6mph /  9.7km/h 87% 0.00in /  0mm 146 W/m2
13:44 50.3 °F /  10.2 °C 46.5 °F /  8.1 °C 30.35in /  1027.7hPa WSW 3.7mph /  6km/h 6mph /  9.7km/h 87% 0.00in /  0mm 142 W/m2
13:49 50.5 °F /  10.3 °C 46.6 °F /  8.1 °C 30.36in /  1028hPa West 4.3mph /  6.9km/h 7mph /  11.3km/h 86.6% 0.00in /  0mm 137 W/m2
13:54 50.4 °F /  10.2 °C 46.5 °F /  8.1 °C 30.36in /  1028hPa West 3.2mph /  5.1km/h 7mph /  11.3km/h 86% 0.00in /  0mm 134 W/m2
13:59 50.5 °F /  10.3 °C 46.6 °F /  8.1 °C 30.35in /  1027.7hPa WSW 3.3mph /  5.3km/h 5mph /  8km/h 86% 0.00in /  0mm 130 W/m2
14:04 50.5 °F /  10.3 °C 46.6 °F /  8.1 °C 30.35in /  1027.7hPa West 2.4mph /  3.9km/h 5mph /  8km/h 86% 0.00in /  0mm 127 W/m2
14:09 50.6 °F /  10.3 °C 46.7 °F /  8.2 °C 30.35in /  1027.7hPa SW 3mph /  4.8km/h 5mph /  8km/h 86% 0.00in /  0mm 118 W/m2
14:14 50.5 °F /  10.3 °C 46.6 °F /  8.1 °C 30.35in /  1027.7hPa SW 2.2mph /  3.5km/h 6mph /  9.7km/h 86% 0.00in /  0mm 113 W/m2
14:19 50.6 °F /  10.3 °C 46.5 °F /  8.1 °C 30.35in /  1027.7hPa WSW 2.9mph /  4.7km/h 5mph /  8km/h 85.6% 0.00in /  0mm 105 W/m2
14:24 50.5 °F /  10.3 °C 46.5 °F /  8.1 °C 30.35in /  1027.7hPa WSW 1.7mph /  2.7km/h 4mph /  6.4km/h 85.8% 0.00in /  0mm 97 W/m2
14:29 50.7 °F /  10.4 °C 46.8 °F /  8.2 °C 30.35in /  1027.7hPa West 1.7mph /  2.7km/h 5mph /  8km/h 86% 0.00in /  0mm 91 W/m2
14:34 50.8 °F /  10.4 °C 46.9 °F /  8.3 °C 30.35in /  1027.7hPa West 2mph /  3.2km/h 4mph /  6.4km/h 86% 0.00in /  0mm 84 W/m2
14:39 50.9 °F /  10.5 °C 46.9 °F /  8.3 °C 30.35in /  1027.7hPa West 2.8mph /  4.5km/h 4mph /  6.4km/h 86% 0.00in /  0mm 81 W/m2
14:44 50.7 °F /  10.4 °C 46.8 °F /  8.2 °C 30.35in /  1027.7hPa West 2mph /  3.2km/h 4mph /  6.4km/h 86% 0.00in /  0mm 74 W/m2
14:49 50.5 °F /  10.3 °C 46.5 °F /  8.1 °C 30.36in /  1028hPa WNW 3.3mph /  5.3km/h 5mph /  8km/h 85.8% 0.00in /  0mm 67 W/m2
14:54 50.3 °F /  10.2 °C 46.3 °F /  7.9 °C 30.36in /  1028hPa West 2.4mph /  3.9km/h 4mph /  6.4km/h 86% 0.00in /  0mm 58 W/m2
14:59 50.2 °F /  10.1 °C 46.3 °F /  7.9 °C 30.35in /  1027.7hPa West 2mph /  3.2km/h 4mph /  6.4km/h 86.6% 0.00in /  0mm 51 W/m2
15:04 50.2 °F /  10.1 °C 46.4 °F /  8 °C 30.35in /  1027.7hPa WNW 2.6mph /  4.2km/h 4mph /  6.4km/h 87% 0.00in /  0mm 46 W/m2
15:09 50.2 °F /  10.1 °C 46.3 °F /  7.9 °C 30.35in /  1027.7hPa WNW 2.5mph /  4km/h 4mph /  6.4km/h 87% 0.00in /  0mm 39 W/m2
15:14 50.2 °F /  10.1 °C 46.4 °F /  8 °C 30.35in /  1027.7hPa West 2.6mph /  4.2km/h 5mph /  8km/h 87% 0.00in /  0mm 35 W/m2
15:19 50.3 °F /  10.2 °C 46.5 °F /  8.1 °C 30.35in /  1027.7hPa West 2.4mph /  3.9km/h 5mph /  8km/h 87% 0.00in /  0mm 28 W/m2
15:24 50.2 °F /  10.1 °C 46.4 °F /  8 °C 30.35in /  1027.7hPa West 1.9mph /  3.1km/h 4mph /  6.4km/h 87% 0.00in /  0mm 25 W/m2
15:29 50.2 °F /  10.1 °C 46.4 °F /  8 °C 30.35in /  1027.7hPa West 1.3mph /  2.1km/h 3mph /  4.8km/h 87% 0.00in /  0mm 21 W/m2
15:34 50 °F /  10 °C 46.2 °F /  7.9 °C 30.35in /  1027.7hPa West 2.3mph /  3.7km/h 4mph /  6.4km/h 87% 0.00in /  0mm 19 W/m2
15:38 49.8 °F /  9.9 °C 46 °F /  7.8 °C 30.35in /  1027.7hPa West 2mph /  3.2km/h 4mph /  6.4km/h 87% 0.00in /  0mm 18 W/m2
15:44 49.6 °F /  9.8 °C 45.8 °F /  7.7 °C 30.35in /  1027.7hPa West 3.1mph /  5km/h 5mph /  8km/h 87% 0.00in /  0mm 16 W/m2
15:49 49.2 °F /  9.6 °C 45.4 °F /  7.4 °C 30.35in /  1027.7hPa West 2.2mph /  3.5km/h 4mph /  6.4km/h 87% 0.00in /  0mm 14 W/m2
15:54 48.9 °F /  9.4 °C 45.4 °F /  7.4 °C 30.35in /  1027.7hPa WNW 1.5mph /  2.4km/h 4mph /  6.4km/h 87.8% 0.00in /  0mm 12 W/m2
15:59 48.6 °F /  9.2 °C 45.2 °F /  7.3 °C 30.35in /  1027.7hPa WNW 0.9mph /  1.4km/h 3mph /  4.8km/h 88% 0.00in /  0mm 11 W/m2
16:04 48.5 °F /  9.2 °C 45.1 °F /  7.3 °C 30.35in /  1027.7hPa WNW 1.5mph /  2.4km/h 4mph /  6.4km/h 88% 0.00in /  0mm 7 W/m2
16:09 48.2 °F /  9 °C 44.8 °F /  7.1 °C 30.36in /  1028hPa WNW 2.1mph /  3.4km/h 4mph /  6.4km/h 88.2% 0.00in /  0mm 5 W/m2
16:14 47.8 °F /  8.8 °C 44.7 °F /  7.1 °C 30.36in /  1028hPa NW 2.5mph /  4km/h 4mph /  6.4km/h 88.8% 0.00in /  0mm 5 W/m2
16:19 47.6 °F /  8.7 °C 44.6 °F /  7 °C 30.36in /  1028hPa NNW 2mph /  3.2km/h 3mph /  4.8km/h 89% 0.00in /  0mm 0 W/m2
16:24 47.5 °F /  8.6 °C 44.4 °F /  6.9 °C 30.36in /  1028hPa NW 1.3mph /  2.1km/h 3mph /  4.8km/h 89% 0.00in /  0mm 0 W/m2
16:29 47.2 °F /  8.4 °C 44.4 °F /  6.9 °C 30.37in /  1028.3hPa NW 2.5mph /  4km/h 4mph /  6.4km/h 89.8% 0.00in /  0mm 0 W/m2
16:34 47 °F /  8.3 °C 44.3 °F /  6.8 °C 30.37in /  1028.3hPa WNW 1.9mph /  3.1km/h 4mph /  6.4km/h 90% 0.00in /  0mm 0 W/m2
16:39 46.9 °F /  8.3 °C 44.2 °F /  6.8 °C 30.37in /  1028.3hPa NW 2mph /  3.2km/h 4mph /  6.4km/h 90% 0.00in /  0mm 0 W/m2
16:44 46.8 °F /  8.2 °C 44.1 °F /  6.7 °C 30.37in /  1028.3hPa WNW 2mph /  3.2km/h 3mph /  4.8km/h 90% 0.00in /  0mm 0 W/m2
16:49 46.8 °F /  8.2 °C 44.2 °F /  6.8 °C 30.37in /  1028.3hPa WNW 0.4mph /  0.6km/h 2mph /  3.2km/h 90.6% 0.00in /  0mm 0 W/m2
16:54 46.7 °F /  8.2 °C 44.1 °F /  6.7 °C 30.37in /  1028.3hPa WNW 0.4mph /  0.6km/h 3mph /  4.8km/h 91% 0.00in /  0mm 0 W/m2
16:59 46.2 °F /  7.9 °C 43.7 °F /  6.5 °C 30.36in /  1028hPa SSW 1.7mph /  2.7km/h 3mph /  4.8km/h 91% 0.00in /  0mm 0 W/m2
17:04 46 °F /  7.8 °C 43.5 °F /  6.4 °C 30.36in /  1028hPa SE 1.7mph /  2.7km/h 3mph /  4.8km/h 91% 0.00in /  0mm 0 W/m2
17:09 45.5 °F /  7.5 °C 43 °F /  6.1 °C 30.36in /  1028hPa ESE 1.3mph /  2.1km/h 3mph /  4.8km/h 91% 0.00in /  0mm 0 W/m2
17:14 45.1 °F /  7.3 °C 42.6 °F /  5.9 °C 30.37in /  1028.3hPa ENE 1.3mph /  2.1km/h 3mph /  4.8km/h 91% 0.00in /  0mm 0 W/m2
17:19 44.9 °F /  7.2 °C 42.4 °F /  5.8 °C 30.37in /  1028.3hPa NE 1.4mph /  2.3km/h 3mph /  4.8km/h 91% 0.00in /  0mm 0 W/m2
17:24 44.8 °F /  7.1 °C 42.3 °F /  5.7 °C 30.37in /  1028.3hPa NE 1.4mph /  2.3km/h 2mph /  3.2km/h 91% 0.00in /  0mm 0 W/m2
17:29 45.1 °F /  7.3 °C 42.7 °F /  5.9 °C 30.37in /  1028.3hPa West 2.5mph /  4km/h 4mph /  6.4km/h 91.4% 0.00in /  0mm 0 W/m2
17:34 45.7 °F /  7.6 °C 43.5 °F /  6.4 °C 30.37in /  1028.3hPa WSW 2.2mph /  3.5km/h 6mph /  9.7km/h 92% 0.00in /  0mm 0 W/m2
17:39 45.7 °F /  7.6 °C 43.5 °F /  6.4 °C 30.37in /  1028.3hPa WNW 2mph /  3.2km/h 6mph /  9.7km/h 92% 0.00in /  0mm 0 W/m2
17:44 45.2 °F /  7.3 °C 43.1 °F /  6.2 °C 30.37in /  1028.3hPa NW 1.9mph /  3.1km/h 5mph /  8km/h 92% 0.00in /  0mm 0 W/m2
17:49 45 °F /  7.2 °C 42.8 °F /  6 °C 30.37in /  1028.3hPa NW 2.8mph /  4.5km/h 5mph /  8km/h 92% 0.00in /  0mm 0 W/m2
17:54 44.8 °F /  7.1 °C 42.6 °F /  5.9 °C 30.37in /  1028.3hPa NNW 3.1mph /  5km/h 5mph /  8km/h 92% 0.00in /  0mm 0 W/m2
17:59 44.6 °F /  7 °C 42.4 °F /  5.8 °C 30.37in /  1028.3hPa NW 4.1mph /  6.6km/h 5mph /  8km/h 92% 0.00in /  0mm 0 W/m2
18:04 44.7 °F /  7.1 °C 42.6 °F /  5.9 °C 30.37in /  1028.3hPa NW 2.2mph /  3.5km/h 5mph /  8km/h 92.8% 0.00in /  0mm 0 W/m2
18:09 44.6 °F /  7 °C 42.6 °F /  5.9 °C 30.37in /  1028.3hPa NW 2.4mph /  3.9km/h 4mph /  6.4km/h 93% 0.00in /  0mm 0 W/m2
18:14 44.5 °F /  6.9 °C 42.5 °F /  5.8 °C 30.37in /  1028.3hPa NNW 2mph /  3.2km/h 4mph /  6.4km/h 93% 0.00in /  0mm 0 W/m2
18:19 44.5 °F /  6.9 °C 42.5 °F /  5.8 °C 30.37in /  1028.3hPa NNW 2.1mph /  3.4km/h 4mph /  6.4km/h 93% 0.00in /  0mm 0 W/m2
18:24 44.5 °F /  6.9 °C 42.5 °F /  5.8 °C 30.37in /  1028.3hPa North 1.6mph /  2.6km/h 4mph /  6.4km/h 93% 0.00in /  0mm 0 W/m2
18:29 44.4 °F /  6.9 °C 42.4 °F /  5.8 °C 30.38in /  1028.7hPa NNW 2mph /  3.2km/h 4mph /  6.4km/h 93% 0.00in /  0mm 0 W/m2
18:34 44.2 °F /  6.8 °C 42.3 °F /  5.7 °C 30.38in /  1028.7hPa NW 2.6mph /  4.2km/h 5mph /  8km/h 93% 0.00in /  0mm 0 W/m2
18:39 44.2 °F /  6.8 °C 42.3 °F /  5.7 °C 30.38in /  1028.7hPa NW 2mph /  3.2km/h 4mph /  6.4km/h 93% 0.00in /  0mm 0 W/m2
18:44 44.2 °F /  6.8 °C 42.3 °F /  5.7 °C 30.38in /  1028.7hPa NW 2.8mph /  4.5km/h 4mph /  6.4km/h 93% 0.00in /  0mm 0 W/m2
18:49 44.3 °F /  6.8 °C 42.3 °F /  5.7 °C 30.39in /  1029hPa NW 1.7mph /  2.7km/h 4mph /  6.4km/h 93% 0.00in /  0mm 0 W/m2
18:54 44.6 °F /  7 °C 42.9 °F /  6.1 °C 30.39in /  1029hPa NW 0.2mph /  0.3km/h 3mph /  4.8km/h 93.8% 0.00in /  0mm 0 W/m2
18:59 44.7 °F /  7.1 °C 43.1 °F /  6.2 °C 30.39in /  1029hPa NW 1.4mph /  2.3km/h 3mph /  4.8km/h 94% 0.00in /  0mm 0 W/m2
19:04 44.8 °F /  7.1 °C 43.2 °F /  6.2 °C 30.39in /  1029hPa NW 1.3mph /  2.1km/h 3mph /  4.8km/h 94% 0.00in /  0mm 0 W/m2
19:09 44.8 °F /  7.1 °C 43.2 °F /  6.2 °C 30.39in /  1029hPa NNW 1mph /  1.6km/h 3mph /  4.8km/h 94% 0.00in /  0mm 0 W/m2
19:14 45 °F /  7.2 °C 43.3 °F /  6.3 °C 30.39in /  1029hPa North 1.9mph /  3.1km/h 3mph /  4.8km/h 94% 0.00in /  0mm 0 W/m2
19:19 45 °F /  7.2 °C 43.3 °F /  6.3 °C 30.39in /  1029hPa NW 1.8mph /  2.9km/h 3mph /  4.8km/h 94% 0.00in /  0mm 0 W/m2
19:24 45.1 °F /  7.3 °C 43.5 °F /  6.4 °C 30.39in /  1029hPa WNW 1.3mph /  2.1km/h 2mph /  3.2km/h 94% 0.00in /  0mm 0 W/m2
19:29 45.1 °F /  7.3 °C 43.5 °F /  6.4 °C 30.39in /  1029hPa WNW 1.5mph /  2.4km/h 3mph /  4.8km/h 94% 0.00in /  0mm 0 W/m2
19:34 45.1 °F /  7.3 °C 43.5 °F /  6.4 °C 30.40in /  1029.3hPa West 1.8mph /  2.9km/h 3mph /  4.8km/h 94% 0.00in /  0mm 0 W/m2
19:39 45.1 °F /  7.3 °C 43.5 °F /  6.4 °C 30.40in /  1029.3hPa WNW 1.9mph /  3.1km/h 3mph /  4.8km/h 94% 0.00in /  0mm 0 W/m2
19:44 45.2 °F /  7.3 °C 43.6 °F /  6.4 °C 30.40in /  1029.3hPa NW 2.8mph /  4.5km/h 5mph /  8km/h 94% 0.00in /  0mm 0 W/m2
19:49 45.3 °F /  7.4 °C 43.7 °F /  6.5 °C 30.40in /  1029.3hPa NW 2mph /  3.2km/h 4mph /  6.4km/h 94% 0.00in /  0mm 0 W/m2
19:54 45.3 °F /  7.4 °C 43.7 °F /  6.5 °C 30.40in /  1029.3hPa NW 2.3mph /  3.7km/h 4mph /  6.4km/h 94% 0.00in /  0mm 0 W/m2
19:59 45.3 °F /  7.4 °C 43.7 °F /  6.5 °C 30.40in /  1029.3hPa NW 2.2mph /  3.5km/h 4mph /  6.4km/h 94% 0.00in /  0mm 0 W/m2
20:04 45.5 °F /  7.5 °C 43.9 °F /  6.6 °C 30.41in /  1029.7hPa NNW 1.7mph /  2.7km/h 4mph /  6.4km/h 94% 0.00in /  0mm 0 W/m2
20:09 45.5 °F /  7.5 °C 43.9 °F /  6.6 °C 30.41in /  1029.7hPa NW 2.1mph /  3.4km/h 4mph /  6.4km/h 94% 0.00in /  0mm 0 W/m2
20:14 45.7 °F /  7.6 °C 44.1 °F /  6.7 °C 30.41in /  1029.7hPa NNW 2.9mph /  4.7km/h 5mph /  8km/h 94% 0.00in /  0mm 0 W/m2
20:19 45.7 °F /  7.6 °C 44.1 °F /  6.7 °C 30.40in /  1029.3hPa NW 2.2mph /  3.5km/h 4mph /  6.4km/h 94% 0.00in /  0mm 0 W/m2
20:24 45.7 °F /  7.6 °C 44.1 °F /  6.7 °C 30.40in /  1029.3hPa NNW 2.2mph /  3.5km/h 5mph /  8km/h 94% 0.00in /  0mm 0 W/m2
20:29 45.7 °F /  7.6 °C 44.1 °F /  6.7 °C 30.40in /  1029.3hPa NW 1.1mph /  1.8km/h 3mph /  4.8km/h 94% 0.00in /  0mm 0 W/m2
20:34 45.7 °F /  7.6 °C 44.1 °F /  6.7 °C 30.40in /  1029.3hPa WNW 0.9mph /  1.4km/h 3mph /  4.8km/h 94% 0.00in /  0mm 0 W/m2
20:39 45.7 °F /  7.6 °C 44.1 °F /  6.7 °C 30.41in /  1029.7hPa WNW 1.5mph /  2.4km/h 2mph /  3.2km/h 94% 0.00in /  0mm 0 W/m2
20:44 45.7 °F /  7.6 °C 44.1 °F /  6.7 °C 30.41in /  1029.7hPa WNW 1.7mph /  2.7km/h 3mph /  4.8km/h 94% 0.00in /  0mm 0 W/m2
20:49 45.7 °F /  7.6 °C 44.1 °F /  6.7 °C 30.41in /  1029.7hPa WNW 1.7mph /  2.7km/h 3mph /  4.8km/h 94% 0.00in /  0mm 0 W/m2
20:54 45.7 °F /  7.6 °C 44.1 °F /  6.7 °C 30.41in /  1029.7hPa WNW 1.2mph /  1.9km/h 3mph /  4.8km/h 94% 0.00in /  0mm 0 W/m2
20:59 45.7 °F /  7.6 °C 44.1 °F /  6.7 °C 30.41in /  1029.7hPa WNW 1.3mph /  2.1km/h 2mph /  3.2km/h 94% 0.00in /  0mm 0 W/m2
21:04 45.6 °F /  7.6 °C 44 °F /  6.7 °C 30.41in /  1029.7hPa WNW 0.9mph /  1.4km/h 2mph /  3.2km/h 94% 0.00in /  0mm 0 W/m2
21:09 45.3 °F /  7.4 °C 43.7 °F /  6.5 °C 30.42in /  1030hPa WNW 2.3mph /  3.7km/h 3mph /  4.8km/h 94% 0.00in /  0mm 0 W/m2
21:14 45.1 °F /  7.3 °C 43.4 °F /  6.3 °C 30.42in /  1030hPa WNW 1.8mph /  2.9km/h 3mph /  4.8km/h 94% 0.00in /  0mm 0 W/m2
21:19 45 °F /  7.2 °C 43.3 °F /  6.3 °C 30.42in /  1030hPa WNW 1.3mph /  2.1km/h 2mph /  3.2km/h 94% 0.00in /  0mm 0 W/m2
21:24 44.7 °F /  7.1 °C 43.1 °F /  6.2 °C 30.42in /  1030hPa WNW 1.3mph /  2.1km/h 3mph /  4.8km/h 94% 0.00in /  0mm 0 W/m2
21:29 44.3 °F /  6.8 °C 42.7 °F /  5.9 °C 30.42in /  1030hPa WNW 1.3mph /  2.1km/h 2mph /  3.2km/h 94% 0.00in /  0mm 0 W/m2
21:34 44.1 °F /  6.7 °C 42.5 °F /  5.8 °C 30.42in /  1030hPa WNW 0.4mph /  0.6km/h 2mph /  3.2km/h 94% 0.00in /  0mm 0 W/m2
21:39 44.1 °F /  6.7 °C 42.4 °F /  5.8 °C 30.42in /  1030hPa WNW 0.5mph /  0.8km/h 1mph /  1.6km/h 94% 0.00in /  0mm 0 W/m2
21:44 43.7 °F /  6.5 °C 42.1 °F /  5.6 °C 30.42in /  1030hPa WNW 0.2mph /  0.3km/h 1mph /  1.6km/h 94% 0.00in /  0mm 0 W/m2
21:49 43.3 °F /  6.3 °C 41.6 °F /  5.3 °C 30.42in /  1030hPa WNW 0.6mph /  1km/h 2mph /  3.2km/h 94% 0.00in /  0mm 0 W/m2
21:54 43.2 °F /  6.2 °C 41.5 °F /  5.3 °C 30.42in /  1030hPa WNW 1.8mph /  2.9km/h 2mph /  3.2km/h 94% 0.00in /  0mm 0 W/m2
21:59 43.2 °F /  6.2 °C 41.5 °F /  5.3 °C 30.42in /  1030hPa WNW 0.2mph /  0.3km/h 2mph /  3.2km/h 94% 0.00in /  0mm 0 W/m2
22:04 43 °F /  6.1 °C 41.4 °F /  5.2 °C 30.41in /  1029.7hPa WNW 0.5mph /  0.8km/h 2mph /  3.2km/h 94% 0.00in /  0mm 0 W/m2
22:09 43 °F /  6.1 °C 41.4 °F /  5.2 °C 30.40in /  1029.3hPa WNW 0.9mph /  1.4km/h 2mph /  3.2km/h 94% 0.00in /  0mm 0 W/m2
22:14 42.8 °F /  6 °C 41.2 °F /  5.1 °C 30.41in /  1029.7hPa WNW 0.9mph /  1.4km/h 2mph /  3.2km/h 94% 0.00in /  0mm 0 W/m2
22:19 42.6 °F /  5.9 °C 41 °F /  5 °C 30.41in /  1029.7hPa WNW 0.2mph /  0.3km/h 2mph /  3.2km/h 94% 0.00in /  0mm 0 W/m2
22:24 42.4 °F /  5.8 °C 40.8 °F /  4.9 °C 30.41in /  1029.7hPa WNW 1.2mph /  1.9km/h 3mph /  4.8km/h 94% 0.00in /  0mm 0 W/m2
22:29 42.4 °F /  5.8 °C 40.8 °F /  4.9 °C 30.41in /  1029.7hPa WNW 0.2mph /  0.3km/h 1mph /  1.6km/h 94% 0.00in /  0mm 0 W/m2
22:34 42.3 °F /  5.7 °C 40.6 °F /  4.8 °C 30.42in /  1030hPa WNW 0.4mph /  0.6km/h 1mph /  1.6km/h 94% 0.00in /  0mm 0 W/m2
22:39 41.9 °F /  5.5 °C 40.3 °F /  4.6 °C 30.42in /  1030hPa WNW 1.4mph /  2.3km/h 2mph /  3.2km/h 94% 0.00in /  0mm 0 W/m2
22:44 41.7 °F /  5.4 °C 40.1 °F /  4.5 °C 30.42in /  1030hPa WNW 1.7mph /  2.7km/h 3mph /  4.8km/h 94% 0.00in /  0mm 0 W/m2
22:49 41.7 °F /  5.4 °C 40.1 °F /  4.5 °C 30.42in /  1030hPa NW 1.3mph /  2.1km/h 3mph /  4.8km/h 94% 0.00in /  0mm 0 W/m2
22:54 41.7 °F /  5.4 °C 40.1 °F /  4.5 °C 30.42in /  1030hPa NNW 0.4mph /  0.6km/h 2mph /  3.2km/h 94% 0.00in /  0mm 0 W/m2
22:59 41.8 °F /  5.4 °C 40.2 °F /  4.6 °C 30.42in /  1030hPa Calm   3mph /  4.8km/h 94% 0.00in /  0mm 0 W/m2
23:04 41.9 °F /  5.5 °C 40.3 °F /  4.6 °C 30.42in /  1030hPa Calm     94% 0.00in /  0mm 0 W/m2
23:09 41.9 °F /  5.5 °C 40.3 °F /  4.6 °C 30.42in /  1030hPa NNW 0.4mph /  0.6km/h 1mph /  1.6km/h 94% 0.00in /  0mm 0 W/m2
23:14 41.8 °F /  5.4 °C 40.3 °F /  4.6 °C 30.42in /  1030hPa NNW 1mph /  1.6km/h 2mph /  3.2km/h 94% 0.00in /  0mm 0 W/m2
23:19 41.7 °F /  5.4 °C 40.1 °F /  4.5 °C 30.42in /  1030hPa NNW 0.7mph /  1.1km/h 2mph /  3.2km/h 94% 0.00in /  0mm 0 W/m2
23:24 41.4 °F /  5.2 °C 39.8 °F /  4.3 °C 30.42in /  1030hPa NNW 1.1mph /  1.8km/h 3mph /  4.8km/h 94% 0.00in /  0mm 0 W/m2
23:29 41.5 °F /  5.3 °C 39.9 °F /  4.4 °C 30.42in /  1030hPa NNW 0.4mph /  0.6km/h 2mph /  3.2km/h 94% 0.00in /  0mm 0 W/m2
23:34 41.5 °F /  5.3 °C 39.9 °F /  4.4 °C 30.42in /  1030hPa Calm   3mph /  4.8km/h 94% 0.00in /  0mm 0 W/m2
23:39 41.4 °F /  5.2 °C 39.8 °F /  4.3 °C 30.41in /  1029.7hPa NNW 0.4mph /  0.6km/h 1mph /  1.6km/h 94% 0.00in /  0mm 0 W/m2
23:43 41.4 °F /  5.2 °C 39.7 °F /  4.3 °C 30.41in /  1029.7hPa NNW 0.5mph /  0.8km/h 2mph /  3.2km/h 94% 0.00in /  0mm 0 W/m2
23:49 41.2 °F /  5.1 °C 39.6 °F /  4.2 °C 30.41in /  1029.7hPa Calm   1mph /  1.6km/h 94% 0.00in /  0mm 0 W/m2
23:54 41 °F /  5 °C 39.4 °F /  4.1 °C 30.41in /  1029.7hPa Calm     94% 0.00in /  0mm 0 W/m2
23:59 40.8 °F /  4.9 °C 39.2 °F /  4 °C 30.41in /  1029.7hPa NNW 0.9mph /  1.4km/h 2mph /  3.2km/h 94% 0.00in /  0mm 0 W/m2
Bath Spa Weather
Compliments of Weather Underground - 2 mb